Historique des mesures à Cassis (13260), France
Quotidien Résumé Juin 27, 2021 Unités:  Métrique    US   Métrique/US
Quotidien Hebdomadaire Mensuel Annuel
  Maximum: Minimum: Moyenne:
Température: 27.5 °C 20.1 °C 23.6 °C
Point de rosée: 12.6 °C 5.7 °C 9.8 °C
Humidité: 58% 27% 43%
Vitesse du vent: 35.6km/h 0km/h 19.6km/h
Rafales: 47.9km/h - -
Vent- - WNW
Pression: 1007.2 hPa 1004.8 hPa -
Précipitations: 0.0 mm    
Historical Graphs
 
 
Mesures pour : Juin 27, 2021
Heure Temperature Point de rosée Pression Vent Vitesse du vent Rafales Humidité Pluie (par heure)
00:11 22.9 °C 12.2 °C 1006.1 hPa Calm   16.2 km/h 51% 0.0 mm
01:11 24.4 °C 8.3 °C 1005.4 hPa WNW 35.3 km/h 37.8 km/h 36% 0.0 mm
02:11 23.9 °C 9.5 °C 1005.3 hPa WNW 24.5 km/h 35.3 km/h 40% 0.0 mm
03:11 22.8 °C 10.5 °C 1005.2 hPa WSW 25.2 km/h 42.1 km/h 46% 0.0 mm
04:11 21.8 °C 11.2 °C 1004.9 hPa West 14.8 km/h 28.1 km/h 51% 0.0 mm
05:11 21.5 °C 11.2 °C 1004.8 hPa NW 26.6 km/h 30.6 km/h 52% 0.0 mm
06:11 20.8 °C 12 °C 1005.2 hPa WNW 12.6 km/h 34.6 km/h 57% 0.0 mm
07:11 20.1 °C 11.6 °C 1005.6 hPa WNW 14.8 km/h 31 km/h 58% 0.0 mm
08:11 23.3 °C 12.6 °C 1005.6 hPa NNW 16.6 km/h 46.1 km/h 51% 0.0 mm
09:11 22.3 °C 11 °C 1005.6 hPa NW 18 km/h 39.6 km/h 49% 0.0 mm
10:11 21.6 °C 10.7 °C 1005.8 hPa NW 18.4 km/h 33.1 km/h 50% 0.0 mm
11:11 23.6 °C 10.6 °C 1006.1 hPa WNW 8.3 km/h 37.1 km/h 44% 0.0 mm
12:11 24.8 °C 9.9 °C 1005.9 hPa NW 22.7 km/h 40.3 km/h 39% 0.0 mm
13:11 25.1 °C 9.3 °C 1005.9 hPa West 27.7 km/h 47.9 km/h 37% 0.0 mm
14:11 25.6 °C 9.3 °C 1006.0 hPa WNW 29.5 km/h 44.6 km/h 36% 0.0 mm
15:11 26.4 °C 9.6 °C 1006.1 hPa NW 35.6 km/h 37.1 km/h 35% 0.0 mm
16:11 26.9 °C 8.3 °C 1006.0 hPa NW 27.4 km/h 33.8 km/h 31% 0.0 mm
17:11 27.5 °C 8.4 °C 1005.9 hPa WNW 14.8 km/h 30.2 km/h 30% 0.0 mm
18:11 26.4 °C 5.7 °C 1006.3 hPa WNW 31.3 km/h 36.7 km/h 27% 0.0 mm
19:11 25.4 °C 6 °C 1006.2 hPa NNW 15.8 km/h 23.8 km/h 29% 0.0 mm
20:11 23.9 °C 7.8 °C 1006.5 hPa North 3.6 km/h 4 km/h 36% 0.0 mm
21:11 22.7 °C 9.8 °C 1007.0 hPa NW 7.6 km/h 24.1 km/h 44% 0.0 mm
22:11 21.7 °C 9.8 °C 1007.2 hPa West 16.9 km/h 27.7 km/h 47% 0.0 mm
23:11 20.8 °C 9.7 °C 1007.0 hPa West 23 km/h 31 km/h 49% 0.0 mm
Observations météo à CASSIS
WU-History script by Weather Underground - 2 mb